Rio Verde, Arizona
Current Conditions -  °F | °C
As of 9:53 AM on Friday 24 Oct 2014 (Local Time) from KSDL Reporting Station
Clear Clear  
Wind Chill: 78°   Ceiling: Unl
Heat Index: 79°   Visibility: 10mi
Dew Point: 50°   Wind: 3mph
Humidity: 37%   Direction: 220°SW
Pressure: 30.1"   Gusts: NA
Location:  33.72°N, 111.67°W
Report Text: KSDL 241653Z 22003KT 10SM CLR 26/10 A3010 RMK AO2 SLP170 T02560100
Loading
Personal Weather Stations






























Interactive Weather Map
Tropical Storm Tracking
New forecast layout! Learn more

10-Day Weather Forecast

Advertisements
Track Severe Weather on mobile